sensor_id;sensor_type;location;lat;lon;timestamp;P1;durP1;ratioP1;P2;durP2;ratioP2
27893;SDS011;15240;50.812;4.792;2023-06-14T00:01:33;9.73;;;8.53;;
27893;SDS011;15240;50.812;4.792;2023-06-14T00:03:59;15.67;;;8.93;;
27893;SDS011;15240;50.812;4.792;2023-06-14T00:06:26;12.50;;;9.07;;
27893;SDS011;15240;50.812;4.792;2023-06-14T00:08:52;14.23;;;9.03;;
27893;SDS011;15240;50.812;4.792;2023-06-14T00:11:19;13.80;;;8.43;;
27893;SDS011;15240;50.812;4.792;2023-06-14T00:13:45;15.40;;;8.53;;
27893;SDS011;15240;50.812;4.792;2023-06-14T00:16:14;14.50;;;8.77;;
27893;SDS011;15240;50.812;4.792;2023-06-14T00:18:41;12.23;;;9.33;;
27893;SDS011;15240;50.812;4.792;2023-06-14T00:21:07;13.63;;;8.50;;
27893;SDS011;15240;50.812;4.792;2023-06-14T00:23:35;13.03;;;9.77;;
27893;SDS011;15240;50.812;4.792;2023-06-14T00:26:01;12.00;;;9.60;;
27893;SDS011;15240;50.812;4.792;2023-06-14T00:28:27;14.63;;;9.43;;
27893;SDS011;15240;50.812;4.792;2023-06-14T00:30:53;13.07;;;9.50;;
27893;SDS011;15240;50.812;4.792;2023-06-14T00:33:19;10.60;;;9.03;;
27893;SDS011;15240;50.812;4.792;2023-06-14T00:35:46;12.83;;;8.60;;
27893;SDS011;15240;50.812;4.792;2023-06-14T00:38:12;11.60;;;8.23;;
27893;SDS011;15240;50.812;4.792;2023-06-14T00:40:38;12.87;;;8.50;;
27893;SDS011;15240;50.812;4.792;2023-06-14T00:43:04;11.23;;;7.83;;
27893;SDS011;15240;50.812;4.792;2023-06-14T00:45:30;11.87;;;8.23;;
27893;SDS011;15240;50.812;4.792;2023-06-14T00:48:00;10.17;;;8.20;;
27893;SDS011;15240;50.812;4.792;2023-06-14T00:50:27;11.80;;;8.40;;
27893;SDS011;15240;50.812;4.792;2023-06-14T00:52:54;12.07;;;8.80;;
27893;SDS011;15240;50.812;4.792;2023-06-14T00:55:21;14.17;;;9.43;;
27893;SDS011;15240;50.812;4.792;2023-06-14T00:57:47;12.20;;;9.03;;
27893;SDS011;15240;50.812;4.792;2023-06-14T01:00:14;12.27;;;8.57;;
27893;SDS011;15240;50.812;4.792;2023-06-14T01:02:41;11.30;;;8.87;;
27893;SDS011;15240;50.812;4.792;2023-06-14T01:05:07;13.67;;;8.57;;
27893;SDS011;15240;50.812;4.792;2023-06-14T01:15:30;10.30;;;8.70;;
27893;SDS011;15240;50.812;4.792;2023-06-14T01:17:57;14.43;;;9.00;;
27893;SDS011;15240;50.812;4.792;2023-06-14T01:20:31;11.30;;;8.60;;
27893;SDS011;15240;50.812;4.792;2023-06-14T01:22:57;13.73;;;9.20;;
27893;SDS011;15240;50.812;4.792;2023-06-14T01:25:24;12.03;;;8.30;;
27893;SDS011;15240;50.812;4.792;2023-06-14T01:27:51;12.13;;;8.23;;
27893;SDS011;15240;50.812;4.792;2023-06-14T01:30:17;11.80;;;8.57;;
27893;SDS011;15240;50.812;4.792;2023-06-14T01:32:43;12.77;;;8.97;;
27893;SDS011;15240;50.812;4.792;2023-06-14T01:35:10;11.80;;;9.50;;
27893;SDS011;15240;50.812;4.792;2023-06-14T01:37:36;13.00;;;9.03;;
27893;SDS011;15240;50.812;4.792;2023-06-14T01:40:03;11.67;;;9.67;;
27893;SDS011;15240;50.812;4.792;2023-06-14T01:42:31;10.87;;;9.30;;
27893;SDS011;15240;50.812;4.792;2023-06-14T01:44:58;14.43;;;10.13;;
27893;SDS011;15240;50.812;4.792;2023-06-14T01:47:24;11.27;;;9.37;;
27893;SDS011;15240;50.812;4.792;2023-06-14T01:49:51;15.70;;;9.03;;
27893;SDS011;15240;50.812;4.792;2023-06-14T01:52:17;11.60;;;8.57;;
27893;SDS011;15240;50.812;4.792;2023-06-14T01:54:44;11.57;;;9.40;;
27893;SDS011;15240;50.812;4.792;2023-06-14T01:57:11;13.17;;;8.50;;
27893;SDS011;15240;50.812;4.792;2023-06-14T01:59:37;12.03;;;8.53;;
27893;SDS011;15240;50.812;4.792;2023-06-14T02:02:03;10.40;;;8.23;;
27893;SDS011;15240;50.812;4.792;2023-06-14T02:04:29;11.40;;;8.53;;
27893;SDS011;15240;50.812;4.792;2023-06-14T02:06:55;12.37;;;8.90;;
27893;SDS011;15240;50.812;4.792;2023-06-14T02:09:21;12.13;;;9.47;;
27893;SDS011;15240;50.812;4.792;2023-06-14T02:11:48;14.53;;;9.17;;
27893;SDS011;15240;50.812;4.792;2023-06-14T02:14:14;12.10;;;9.37;;
27893;SDS011;15240;50.812;4.792;2023-06-14T02:16:41;13.47;;;9.07;;
27893;SDS011;15240;50.812;4.792;2023-06-14T02:19:14;11.27;;;9.20;;
27893;SDS011;15240;50.812;4.792;2023-06-14T02:21:40;12.60;;;9.10;;
27893;SDS011;15240;50.812;4.792;2023-06-14T02:24:06;11.20;;;8.83;;
27893;SDS011;15240;50.812;4.792;2023-06-14T02:26:32;10.50;;;8.97;;
27893;SDS011;15240;50.812;4.792;2023-06-14T02:28:59;13.97;;;9.20;;
27893;SDS011;15240;50.812;4.792;2023-06-14T02:31:26;13.43;;;9.23;;
27893;SDS011;15240;50.812;4.792;2023-06-14T02:33:52;12.70;;;10.03;;
27893;SDS011;15240;50.812;4.792;2023-06-14T02:36:18;15.27;;;9.47;;
27893;SDS011;15240;50.812;4.792;2023-06-14T02:38:45;12.37;;;9.60;;
27893;SDS011;15240;50.812;4.792;2023-06-14T02:41:11;12.07;;;9.97;;
27893;SDS011;15240;50.812;4.792;2023-06-14T02:43:37;12.80;;;10.17;;
27893;SDS011;15240;50.812;4.792;2023-06-14T02:46:04;11.23;;;9.23;;
27893;SDS011;15240;50.812;4.792;2023-06-14T02:48:30;12.13;;;9.03;;
27893;SDS011;15240;50.812;4.792;2023-06-14T02:50:56;10.60;;;9.13;;
27893;SDS011;15240;50.812;4.792;2023-06-14T02:53:22;12.00;;;9.27;;
27893;SDS011;15240;50.812;4.792;2023-06-14T02:55:48;14.23;;;9.90;;
27893;SDS011;15240;50.812;4.792;2023-06-14T02:58:14;16.07;;;9.60;;
27893;SDS011;15240;50.812;4.792;2023-06-14T03:00:41;13.13;;;9.57;;
27893;SDS011;15240;50.812;4.792;2023-06-14T03:03:09;13.27;;;10.07;;
27893;SDS011;15240;50.812;4.792;2023-06-14T03:05:41;11.40;;;9.50;;
27893;SDS011;15240;50.812;4.792;2023-06-14T03:08:11;14.03;;;9.60;;
27893;SDS011;15240;50.812;4.792;2023-06-14T03:10:42;15.37;;;9.67;;
27893;SDS011;15240;50.812;4.792;2023-06-14T03:13:08;18.00;;;9.97;;
27893;SDS011;15240;50.812;4.792;2023-06-14T03:15:36;14.10;;;10.10;;
27893;SDS011;15240;50.812;4.792;2023-06-14T03:18:03;18.63;;;11.03;;
27893;SDS011;15240;50.812;4.792;2023-06-14T03:20:29;13.50;;;10.50;;
27893;SDS011;15240;50.812;4.792;2023-06-14T03:22:58;15.30;;;11.43;;
27893;SDS011;15240;50.812;4.792;2023-06-14T03:25:25;18.73;;;11.50;;
27893;SDS011;15240;50.812;4.792;2023-06-14T03:27:54;15.27;;;11.50;;
27893;SDS011;15240;50.812;4.792;2023-06-14T03:30:20;18.47;;;11.77;;
27893;SDS011;15240;50.812;4.792;2023-06-14T03:32:46;15.73;;;11.57;;
27893;SDS011;15240;50.812;4.792;2023-06-14T03:35:12;15.87;;;11.50;;
27893;SDS011;15240;50.812;4.792;2023-06-14T03:37:45;14.17;;;11.03;;
27893;SDS011;15240;50.812;4.792;2023-06-14T03:40:12;14.03;;;11.20;;
27893;SDS011;15240;50.812;4.792;2023-06-14T03:42:39;14.83;;;11.03;;
27893;SDS011;15240;50.812;4.792;2023-06-14T03:45:05;15.57;;;12.10;;
27893;SDS011;15240;50.812;4.792;2023-06-14T03:47:32;17.77;;;11.87;;
27893;SDS011;15240;50.812;4.792;2023-06-14T03:49:58;14.90;;;11.90;;
27893;SDS011;15240;50.812;4.792;2023-06-14T03:52:25;16.03;;;11.43;;
27893;SDS011;15240;50.812;4.792;2023-06-14T03:54:51;16.73;;;11.40;;
27893;SDS011;15240;50.812;4.792;2023-06-14T03:57:18;16.13;;;11.83;;
27893;SDS011;15240;50.812;4.792;2023-06-14T03:59:44;15.00;;;10.77;;
27893;SDS011;15240;50.812;4.792;2023-06-14T04:02:10;15.60;;;11.47;;
27893;SDS011;15240;50.812;4.792;2023-06-14T04:04:36;14.07;;;11.53;;
27893;SDS011;15240;50.812;4.792;2023-06-14T04:07:03;14.37;;;12.00;;
27893;SDS011;15240;50.812;4.792;2023-06-14T04:09:29;13.80;;;11.30;;
27893;SDS011;15240;50.812;4.792;2023-06-14T04:11:56;14.97;;;11.70;;
27893;SDS011;15240;50.812;4.792;2023-06-14T04:14:22;15.83;;;12.23;;
27893;SDS011;15240;50.812;4.792;2023-06-14T04:16:48;13.43;;;10.77;;
27893;SDS011;15240;50.812;4.792;2023-06-14T04:19:15;15.07;;;11.63;;
27893;SDS011;15240;50.812;4.792;2023-06-14T04:21:41;16.83;;;12.10;;
27893;SDS011;15240;50.812;4.792;2023-06-14T04:24:08;18.13;;;12.20;;
27893;SDS011;15240;50.812;4.792;2023-06-14T04:26:41;17.00;;;11.87;;
27893;SDS011;15240;50.812;4.792;2023-06-14T04:29:09;17.43;;;11.53;;
27893;SDS011;15240;50.812;4.792;2023-06-14T04:31:39;15.20;;;12.43;;
27893;SDS011;15240;50.812;4.792;2023-06-14T04:34:05;15.57;;;11.77;;
27893;SDS011;15240;50.812;4.792;2023-06-14T04:36:34;16.60;;;12.20;;
27893;SDS011;15240;50.812;4.792;2023-06-14T04:39:03;14.93;;;11.73;;
27893;SDS011;15240;50.812;4.792;2023-06-14T04:41:29;17.60;;;12.70;;
27893;SDS011;15240;50.812;4.792;2023-06-14T04:44:00;16.83;;;12.50;;
27893;SDS011;15240;50.812;4.792;2023-06-14T04:46:29;15.17;;;12.37;;
27893;SDS011;15240;50.812;4.792;2023-06-14T04:48:57;18.47;;;13.13;;
27893;SDS011;15240;50.812;4.792;2023-06-14T04:51:27;15.90;;;12.23;;
27893;SDS011;15240;50.812;4.792;2023-06-14T04:53:58;17.67;;;13.40;;
27893;SDS011;15240;50.812;4.792;2023-06-14T04:56:26;15.37;;;13.20;;
27893;SDS011;15240;50.812;4.792;2023-06-14T04:58:52;16.77;;;13.37;;
27893;SDS011;15240;50.812;4.792;2023-06-14T05:01:19;17.43;;;12.87;;
27893;SDS011;15240;50.812;4.792;2023-06-14T05:03:46;16.73;;;12.93;;
27893;SDS011;15240;50.812;4.792;2023-06-14T05:06:14;16.50;;;13.90;;
27893;SDS011;15240;50.812;4.792;2023-06-14T05:08:40;18.87;;;13.23;;
27893;SDS011;15240;50.812;4.792;2023-06-14T05:11:07;16.63;;;13.53;;
27893;SDS011;15240;50.812;4.792;2023-06-14T05:13:33;17.77;;;13.27;;
27893;SDS011;15240;50.812;4.792;2023-06-14T05:15:59;15.10;;;12.87;;
27893;SDS011;15240;50.812;4.792;2023-06-14T05:18:25;17.67;;;14.00;;
27893;SDS011;15240;50.812;4.792;2023-06-14T05:20:52;19.37;;;13.00;;
27893;SDS011;15240;50.812;4.792;2023-06-14T05:23:18;16.97;;;13.67;;
27893;SDS011;15240;50.812;4.792;2023-06-14T05:25:45;18.87;;;13.40;;
27893;SDS011;15240;50.812;4.792;2023-06-14T05:28:11;16.20;;;13.60;;
27893;SDS011;15240;50.812;4.792;2023-06-14T05:30:38;17.30;;;13.60;;
27893;SDS011;15240;50.812;4.792;2023-06-14T05:33:04;19.63;;;13.40;;
27893;SDS011;15240;50.812;4.792;2023-06-14T05:35:31;17.80;;;13.13;;
27893;SDS011;15240;50.812;4.792;2023-06-14T05:37:57;19.90;;;13.80;;
27893;SDS011;15240;50.812;4.792;2023-06-14T05:40:23;18.03;;;13.00;;
27893;SDS011;15240;50.812;4.792;2023-06-14T05:42:49;18.77;;;13.53;;
27893;SDS011;15240;50.812;4.792;2023-06-14T05:45:16;17.33;;;13.37;;
27893;SDS011;15240;50.812;4.792;2023-06-14T05:47:43;18.67;;;13.37;;
27893;SDS011;15240;50.812;4.792;2023-06-14T05:50:10;18.13;;;13.77;;
27893;SDS011;15240;50.812;4.792;2023-06-14T05:52:36;17.60;;;13.60;;
27893;SDS011;15240;50.812;4.792;2023-06-14T05:55:02;17.60;;;12.97;;
27893;SDS011;15240;50.812;4.792;2023-06-14T05:57:28;18.70;;;13.43;;
27893;SDS011;15240;50.812;4.792;2023-06-14T05:59:54;21.57;;;12.60;;
27893;SDS011;15240;50.812;4.792;2023-06-14T06:02:20;17.33;;;12.03;;
27893;SDS011;15240;50.812;4.792;2023-06-14T06:04:48;19.43;;;12.80;;
27893;SDS011;15240;50.812;4.792;2023-06-14T06:08:01;17.17;;;12.43;;
27893;SDS011;15240;50.812;4.792;2023-06-14T06:16:26;18.15;;;11.75;;
27893;SDS011;15240;50.812;4.792;2023-06-14T06:19:38;17.27;;;11.60;;
27893;SDS011;15240;50.812;4.792;2023-06-14T06:35:05;16.33;;;10.20;;
27893;SDS011;15240;50.812;4.792;2023-06-14T06:44:18;15.18;;;10.32;;
27893;SDS011;15240;50.812;4.792;2023-06-14T06:46:44;12.55;;;9.73;;
27893;SDS011;15240;50.812;4.792;2023-06-14T06:49:10;15.50;;;10.95;;
27893;SDS011;15240;50.812;4.792;2023-06-14T06:51:42;12.40;;;10.27;;
27893;SDS011;15240;50.812;4.792;2023-06-14T06:54:08;10.52;;;9.43;;
27893;SDS011;15240;50.812;4.792;2023-06-14T06:56:35;14.45;;;9.90;;
27893;SDS011;15240;50.812;4.792;2023-06-14T06:59:01;12.63;;;10.07;;
27893;SDS011;15240;50.812;4.792;2023-06-14T07:01:27;14.90;;;10.10;;
27893;SDS011;15240;50.812;4.792;2023-06-14T07:03:55;12.05;;;8.88;;
27893;SDS011;15240;50.812;4.792;2023-06-14T07:06:21;12.95;;;9.32;;
27893;SDS011;15240;50.812;4.792;2023-06-14T07:08:47;13.18;;;9.48;;
27893;SDS011;15240;50.812;4.792;2023-06-14T07:11:14;14.43;;;8.63;;
27893;SDS011;15240;50.812;4.792;2023-06-14T07:13:40;11.80;;;9.00;;
27893;SDS011;15240;50.812;4.792;2023-06-14T07:16:06;15.43;;;9.27;;
27893;SDS011;15240;50.812;4.792;2023-06-14T07:18:33;13.77;;;9.30;;
27893;SDS011;15240;50.812;4.792;2023-06-14T07:21:00;11.77;;;9.50;;
27893;SDS011;15240;50.812;4.792;2023-06-14T07:23:26;14.43;;;9.52;;
27893;SDS011;15240;50.812;4.792;2023-06-14T07:25:52;11.65;;;9.15;;
27893;SDS011;15240;50.812;4.792;2023-06-14T07:28:19;12.27;;;9.48;;
27893;SDS011;15240;50.812;4.792;2023-06-14T07:30:45;12.10;;;9.00;;
27893;SDS011;15240;50.812;4.792;2023-06-14T07:33:13;11.15;;;8.95;;
27893;SDS011;15240;50.812;4.792;2023-06-14T07:35:41;11.45;;;9.25;;
27893;SDS011;15240;50.812;4.792;2023-06-14T07:38:08;9.90;;;8.10;;
27893;SDS011;15240;50.812;4.792;2023-06-14T07:40:34;9.60;;;8.40;;
27893;SDS011;15240;50.812;4.792;2023-06-14T07:43:00;14.57;;;8.80;;
27893;SDS011;15240;50.812;4.792;2023-06-14T07:57:45;10.07;;;8.90;;
27893;SDS011;15240;50.812;4.792;2023-06-14T10:27:22;9.98;;;5.30;;
27893;SDS011;15240;50.812;4.792;2023-06-14T10:33:39;9.30;;;4.78;;
27893;SDS011;15240;50.812;4.792;2023-06-14T10:42:05;12.93;;;5.57;;
27893;SDS011;15240;50.812;4.792;2023-06-14T10:54:28;9.98;;;5.47;;
27893;SDS011;15240;50.812;4.792;2023-06-14T11:00:52;9.60;;;4.97;;
27893;SDS011;15240;50.812;4.792;2023-06-14T11:07:35;8.55;;;5.10;;
27893;SDS011;15240;50.812;4.792;2023-06-14T11:13:44;7.78;;;4.50;;
27893;SDS011;15240;50.812;4.792;2023-06-14T11:16:49;8.73;;;4.55;;
27893;SDS011;15240;50.812;4.792;2023-06-14T11:23:08;7.00;;;4.72;;
27893;SDS011;15240;50.812;4.792;2023-06-14T11:32:20;9.48;;;4.88;;
27893;SDS011;15240;50.812;4.792;2023-06-14T11:35:13;9.10;;;4.85;;
27893;SDS011;15240;50.812;4.792;2023-06-14T11:47:35;7.63;;;4.78;;
27893;SDS011;15240;50.812;4.792;2023-06-14T12:15:23;11.23;;;5.07;;
27893;SDS011;15240;50.812;4.792;2023-06-14T12:34:00;5.05;;;3.30;;
27893;SDS011;15240;50.812;4.792;2023-06-14T12:46:31;5.88;;;2.90;;
27893;SDS011;15240;50.812;4.792;2023-06-14T12:52:54;3.78;;;2.70;;
27893;SDS011;15240;50.812;4.792;2023-06-14T12:56:06;3.47;;;2.40;;
27893;SDS011;15240;50.812;4.792;2023-06-14T13:14:51;6.32;;;2.20;;
27893;SDS011;15240;50.812;4.792;2023-06-14T13:27:56;4.28;;;1.70;;
27893;SDS011;15240;50.812;4.792;2023-06-14T13:33:56;3.88;;;1.73;;
27893;SDS011;15240;50.812;4.792;2023-06-14T13:37:08;3.88;;;1.80;;
27893;SDS011;15240;50.812;4.792;2023-06-14T13:40:20;4.10;;;1.75;;
27893;SDS011;15240;50.812;4.792;2023-06-14T13:46:32;5.03;;;1.88;;
27893;SDS011;15240;50.812;4.792;2023-06-14T13:58:35;3.40;;;1.80;;
27893;SDS011;15240;50.812;4.792;2023-06-14T14:01:34;3.58;;;2.00;;
27893;SDS011;15240;50.812;4.792;2023-06-14T14:04:38;5.75;;;2.10;;
27893;SDS011;15240;50.812;4.792;2023-06-14T14:07:43;4.45;;;2.00;;
27893;SDS011;15240;50.812;4.792;2023-06-14T14:13:44;3.95;;;1.90;;
27893;SDS011;15240;50.812;4.792;2023-06-14T14:19:53;3.70;;;2.10;;
27893;SDS011;15240;50.812;4.792;2023-06-14T14:26:24;3.65;;;1.70;;
27893;SDS011;15240;50.812;4.792;2023-06-14T14:29:15;7.15;;;2.28;;
27893;SDS011;15240;50.812;4.792;2023-06-14T14:32:25;5.70;;;2.50;;
27893;SDS011;15240;50.812;4.792;2023-06-14T14:35:45;7.32;;;2.30;;
27893;SDS011;15240;50.812;4.792;2023-06-14T14:41:25;6.22;;;2.28;;
27893;SDS011;15240;50.812;4.792;2023-06-14T14:44:33;4.32;;;2.00;;
27893;SDS011;15240;50.812;4.792;2023-06-14T14:47:39;7.53;;;2.25;;
27893;SDS011;15240;50.812;4.792;2023-06-14T14:53:49;5.57;;;2.45;;
27893;SDS011;15240;50.812;4.792;2023-06-14T14:57:03;3.47;;;2.47;;
27893;SDS011;15240;50.812;4.792;2023-06-14T15:00:23;4.38;;;2.42;;
27893;SDS011;15240;50.812;4.792;2023-06-14T15:03:36;6.18;;;2.35;;
27893;SDS011;15240;50.812;4.792;2023-06-14T15:06:49;8.75;;;2.35;;
27893;SDS011;15240;50.812;4.792;2023-06-14T15:09:57;5.05;;;2.33;;
27893;SDS011;15240;50.812;4.792;2023-06-14T15:16:00;6.18;;;2.30;;
27893;SDS011;15240;50.812;4.792;2023-06-14T15:22:26;7.53;;;2.50;;
27893;SDS011;15240;50.812;4.792;2023-06-14T15:25:43;7.70;;;2.65;;
27893;SDS011;15240;50.812;4.792;2023-06-14T15:31:58;3.15;;;2.20;;
27893;SDS011;15240;50.812;4.792;2023-06-14T15:34:48;5.70;;;2.20;;
27893;SDS011;15240;50.812;4.792;2023-06-14T15:37:41;3.95;;;2.40;;
27893;SDS011;15240;50.812;4.792;2023-06-14T15:40:32;3.65;;;2.10;;
27893;SDS011;15240;50.812;4.792;2023-06-14T15:45:50;6.20;;;2.22;;
27893;SDS011;15240;50.812;4.792;2023-06-14T15:48:16;6.28;;;2.00;;
27893;SDS011;15240;50.812;4.792;2023-06-14T15:50:42;6.78;;;1.92;;
27893;SDS011;15240;50.812;4.792;2023-06-14T15:53:09;3.35;;;2.17;;
27893;SDS011;15240;50.812;4.792;2023-06-14T15:55:35;4.82;;;1.80;;
27893;SDS011;15240;50.812;4.792;2023-06-14T15:58:01;4.85;;;2.20;;
27893;SDS011;15240;50.812;4.792;2023-06-14T16:00:27;4.43;;;2.05;;
27893;SDS011;15240;50.812;4.792;2023-06-14T16:02:54;4.20;;;1.67;;
27893;SDS011;15240;50.812;4.792;2023-06-14T16:05:20;4.30;;;2.08;;
27893;SDS011;15240;50.812;4.792;2023-06-14T16:07:46;4.32;;;2.40;;
27893;SDS011;15240;50.812;4.792;2023-06-14T16:10:13;4.13;;;1.92;;
27893;SDS011;15240;50.812;4.792;2023-06-14T16:12:39;5.30;;;1.88;;
27893;SDS011;15240;50.812;4.792;2023-06-14T16:15:05;5.88;;;2.10;;
27893;SDS011;15240;50.812;4.792;2023-06-14T16:17:31;3.13;;;1.83;;
27893;SDS011;15240;50.812;4.792;2023-06-14T16:19:57;3.67;;;1.80;;
27893;SDS011;15240;50.812;4.792;2023-06-14T16:22:23;5.35;;;1.90;;
27893;SDS011;15240;50.812;4.792;2023-06-14T16:24:49;5.07;;;2.00;;
27893;SDS011;15240;50.812;4.792;2023-06-14T16:27:15;6.32;;;2.03;;
27893;SDS011;15240;50.812;4.792;2023-06-14T16:29:41;3.83;;;2.00;;
27893;SDS011;15240;50.812;4.792;2023-06-14T16:32:08;3.63;;;1.98;;
27893;SDS011;15240;50.812;4.792;2023-06-14T16:34:34;3.38;;;2.10;;
27893;SDS011;15240;50.812;4.792;2023-06-14T16:37:00;5.93;;;1.77;;
27893;SDS011;15240;50.812;4.792;2023-06-14T16:39:27;4.45;;;1.88;;
27893;SDS011;15240;50.812;4.792;2023-06-14T16:41:53;4.60;;;2.25;;
27893;SDS011;15240;50.812;4.792;2023-06-14T16:44:19;2.40;;;1.52;;
27893;SDS011;15240;50.812;4.792;2023-06-14T16:46:45;3.28;;;1.73;;
27893;SDS011;15240;50.812;4.792;2023-06-14T16:49:11;3.85;;;1.75;;
27893;SDS011;15240;50.812;4.792;2023-06-14T16:51:37;3.53;;;1.60;;
27893;SDS011;15240;50.812;4.792;2023-06-14T16:54:03;6.03;;;1.80;;
27893;SDS011;15240;50.812;4.792;2023-06-14T16:56:29;6.25;;;1.75;;
27893;SDS011;15240;50.812;4.792;2023-06-14T16:58:57;5.63;;;1.77;;
27893;SDS011;15240;50.812;4.792;2023-06-14T17:01:25;6.90;;;1.67;;
27893;SDS011;15240;50.812;4.792;2023-06-14T17:03:51;3.70;;;1.30;;
27893;SDS011;15240;50.812;4.792;2023-06-14T17:06:18;4.43;;;1.80;;
27893;SDS011;15240;50.812;4.792;2023-06-14T17:08:46;8.10;;;1.73;;
27893;SDS011;15240;50.812;4.792;2023-06-14T17:11:12;7.72;;;1.63;;
27893;SDS011;15240;50.812;4.792;2023-06-14T17:13:40;4.75;;;1.60;;
27893;SDS011;15240;50.812;4.792;2023-06-14T17:16:06;5.53;;;1.60;;
27893;SDS011;15240;50.812;4.792;2023-06-14T17:18:35;4.15;;;1.40;;
27893;SDS011;15240;50.812;4.792;2023-06-14T17:21:01;3.53;;;1.52;;
27893;SDS011;15240;50.812;4.792;2023-06-14T17:23:28;5.70;;;1.40;;
27893;SDS011;15240;50.812;4.792;2023-06-14T17:25:54;2.85;;;1.48;;
27893;SDS011;15240;50.812;4.792;2023-06-14T17:28:20;4.63;;;1.48;;
27893;SDS011;15240;50.812;4.792;2023-06-14T17:30:47;3.05;;;1.33;;
27893;SDS011;15240;50.812;4.792;2023-06-14T17:33:13;2.53;;;1.05;;
27893;SDS011;15240;50.812;4.792;2023-06-14T17:35:41;5.80;;;1.52;;
27893;SDS011;15240;50.812;4.792;2023-06-14T17:40:43;5.32;;;1.70;;
27893;SDS011;15240;50.812;4.792;2023-06-14T17:43:09;3.72;;;1.52;;
27893;SDS011;15240;50.812;4.792;2023-06-14T17:45:35;7.50;;;1.40;;
27893;SDS011;15240;50.812;4.792;2023-06-14T17:48:02;6.22;;;1.65;;
27893;SDS011;15240;50.812;4.792;2023-06-14T17:50:28;4.32;;;1.52;;
27893;SDS011;15240;50.812;4.792;2023-06-14T17:52:54;6.03;;;1.60;;
27893;SDS011;15240;50.812;4.792;2023-06-14T17:55:21;3.67;;;1.45;;
27893;SDS011;15240;50.812;4.792;2023-06-14T17:57:47;6.13;;;1.50;;
27893;SDS011;15240;50.812;4.792;2023-06-14T18:00:13;4.43;;;1.70;;
27893;SDS011;15240;50.812;4.792;2023-06-14T18:02:41;4.03;;;1.77;;
27893;SDS011;15240;50.812;4.792;2023-06-14T18:05:07;5.90;;;1.70;;
27893;SDS011;15240;50.812;4.792;2023-06-14T18:07:33;3.30;;;1.73;;
27893;SDS011;15240;50.812;4.792;2023-06-14T18:10:01;6.95;;;1.60;;
27893;SDS011;15240;50.812;4.792;2023-06-14T18:12:27;4.78;;;1.50;;
27893;SDS011;15240;50.812;4.792;2023-06-14T18:14:53;5.50;;;1.80;;
27893;SDS011;15240;50.812;4.792;2023-06-14T18:17:19;3.05;;;1.60;;
27893;SDS011;15240;50.812;4.792;2023-06-14T18:19:45;3.78;;;1.70;;
27893;SDS011;15240;50.812;4.792;2023-06-14T18:22:11;3.38;;;2.00;;
27893;SDS011;15240;50.812;4.792;2023-06-14T18:24:37;5.72;;;1.75;;
27893;SDS011;15240;50.812;4.792;2023-06-14T18:27:04;3.10;;;1.90;;
27893;SDS011;15240;50.812;4.792;2023-06-14T18:29:32;3.60;;;2.00;;
27893;SDS011;15240;50.812;4.792;2023-06-14T18:31:59;7.03;;;1.92;;
27893;SDS011;15240;50.812;4.792;2023-06-14T18:34:26;2.80;;;1.75;;
27893;SDS011;15240;50.812;4.792;2023-06-14T18:36:52;4.97;;;2.17;;
27893;SDS011;15240;50.812;4.792;2023-06-14T18:39:21;4.40;;;1.85;;
27893;SDS011;15240;50.812;4.792;2023-06-14T18:41:47;3.45;;;1.73;;
27893;SDS011;15240;50.812;4.792;2023-06-14T18:44:13;5.13;;;2.03;;
27893;SDS011;15240;50.812;4.792;2023-06-14T18:46:40;3.97;;;1.92;;
27893;SDS011;15240;50.812;4.792;2023-06-14T18:49:07;8.00;;;1.98;;
27893;SDS011;15240;50.812;4.792;2023-06-14T18:51:33;6.35;;;2.00;;
27893;SDS011;15240;50.812;4.792;2023-06-14T18:54:03;4.75;;;2.63;;
27893;SDS011;15240;50.812;4.792;2023-06-14T18:56:29;3.40;;;2.38;;
27893;SDS011;15240;50.812;4.792;2023-06-14T18:58:55;6.95;;;2.85;;
27893;SDS011;15240;50.812;4.792;2023-06-14T19:01:21;4.80;;;2.10;;
27893;SDS011;15240;50.812;4.792;2023-06-14T19:03:47;7.43;;;1.98;;
27893;SDS011;15240;50.812;4.792;2023-06-14T19:06:14;4.07;;;1.73;;
27893;SDS011;15240;50.812;4.792;2023-06-14T19:08:40;4.43;;;1.85;;
27893;SDS011;15240;50.812;4.792;2023-06-14T19:11:06;4.60;;;2.03;;
27893;SDS011;15240;50.812;4.792;2023-06-14T19:13:32;4.43;;;2.28;;
27893;SDS011;15240;50.812;4.792;2023-06-14T19:15:59;4.53;;;2.78;;
27893;SDS011;15240;50.812;4.792;2023-06-14T19:18:25;8.68;;;2.28;;
27893;SDS011;15240;50.812;4.792;2023-06-14T19:20:52;8.60;;;2.95;;
27893;SDS011;15240;50.812;4.792;2023-06-14T19:23:18;5.50;;;2.10;;
27893;SDS011;15240;50.812;4.792;2023-06-14T19:25:47;3.88;;;2.00;;
27893;SDS011;15240;50.812;4.792;2023-06-14T19:28:13;4.32;;;2.00;;
27893;SDS011;15240;50.812;4.792;2023-06-14T19:30:40;11.63;;;2.97;;
27893;SDS011;15240;50.812;4.792;2023-06-14T19:33:07;5.68;;;3.25;;
27893;SDS011;15240;50.812;4.792;2023-06-14T19:35:33;10.77;;;5.70;;
27893;SDS011;15240;50.812;4.792;2023-06-14T19:37:59;9.77;;;7.20;;
27893;SDS011;15240;50.812;4.792;2023-06-14T19:40:25;13.52;;;9.00;;
27893;SDS011;15240;50.812;4.792;2023-06-14T19:42:51;19.50;;;10.70;;
27893;SDS011;15240;50.812;4.792;2023-06-14T19:45:18;20.67;;;10.20;;
27893;SDS011;15240;50.812;4.792;2023-06-14T19:47:44;9.65;;;5.07;;
27893;SDS011;15240;50.812;4.792;2023-06-14T19:50:11;6.15;;;4.60;;
27893;SDS011;15240;50.812;4.792;2023-06-14T19:52:37;12.93;;;3.53;;
27893;SDS011;15240;50.812;4.792;2023-06-14T19:55:03;6.13;;;3.22;;
27893;SDS011;15240;50.812;4.792;2023-06-14T19:57:29;8.05;;;4.03;;
27893;SDS011;15240;50.812;4.792;2023-06-14T19:59:55;4.63;;;2.70;;
27893;SDS011;15240;50.812;4.792;2023-06-14T20:02:21;7.43;;;3.53;;
27893;SDS011;15240;50.812;4.792;2023-06-14T20:04:48;6.20;;;3.00;;
27893;SDS011;15240;50.812;4.792;2023-06-14T20:07:14;5.00;;;2.08;;
27893;SDS011;15240;50.812;4.792;2023-06-14T20:09:40;4.63;;;2.45;;
27893;SDS011;15240;50.812;4.792;2023-06-14T20:12:06;6.25;;;2.30;;
27893;SDS011;15240;50.812;4.792;2023-06-14T20:14:32;6.72;;;2.47;;
27893;SDS011;15240;50.812;4.792;2023-06-14T20:16:59;5.63;;;2.17;;
27893;SDS011;15240;50.812;4.792;2023-06-14T20:19:25;5.20;;;2.37;;
27893;SDS011;15240;50.812;4.792;2023-06-14T20:21:51;3.65;;;2.40;;
27893;SDS011;15240;50.812;4.792;2023-06-14T20:24:17;6.40;;;2.58;;
27893;SDS011;15240;50.812;4.792;2023-06-14T20:26:43;4.40;;;2.40;;
27893;SDS011;15240;50.812;4.792;2023-06-14T20:29:09;6.77;;;2.63;;
27893;SDS011;15240;50.812;4.792;2023-06-14T20:31:35;7.50;;;2.80;;
27893;SDS011;15240;50.812;4.792;2023-06-14T20:34:02;6.57;;;2.45;;
27893;SDS011;15240;50.812;4.792;2023-06-14T20:36:29;4.97;;;2.70;;
27893;SDS011;15240;50.812;4.792;2023-06-14T20:38:55;5.50;;;2.80;;
27893;SDS011;15240;50.812;4.792;2023-06-14T20:41:21;6.27;;;2.97;;
27893;SDS011;15240;50.812;4.792;2023-06-14T20:43:48;5.77;;;2.80;;
27893;SDS011;15240;50.812;4.792;2023-06-14T20:46:14;5.53;;;2.90;;
27893;SDS011;15240;50.812;4.792;2023-06-14T20:48:42;4.47;;;2.70;;
27893;SDS011;15240;50.812;4.792;2023-06-14T20:51:08;5.93;;;3.00;;
27893;SDS011;15240;50.812;4.792;2023-06-14T20:53:34;7.30;;;2.93;;
27893;SDS011;15240;50.812;4.792;2023-06-14T20:56:00;6.10;;;2.83;;
27893;SDS011;15240;50.812;4.792;2023-06-14T20:58:26;4.83;;;3.20;;
27893;SDS011;15240;50.812;4.792;2023-06-14T21:00:52;6.20;;;3.00;;
27893;SDS011;15240;50.812;4.792;2023-06-14T21:03:18;8.33;;;3.33;;
27893;SDS011;15240;50.812;4.792;2023-06-14T21:05:44;6.97;;;3.50;;
27893;SDS011;15240;50.812;4.792;2023-06-14T21:08:11;4.70;;;2.90;;
27893;SDS011;15240;50.812;4.792;2023-06-14T21:10:37;4.53;;;3.00;;